Time;durP1;ratioP1;P1;durP2;ratioP2;P2;SDS_P1;SDS_P2;PMS_P1;PMS_P2;Temp;Humidity;BMP_temperature;BMP_pressure;BME280_temperature;BME280_humidity;BME280_pressure;Samples;Min_cycle;Max_cycle;Signal;HPM_P1;HPM_P2
2021/06/21 00:01:56;;;;;;;4.93;2.03;;;;;;;-144.99;80.02;52289.13;5090694;28;20224;-77
2021/06/21 00:04:23;;;;;;;3.90;2.27;;;;;;;-144.99;80.16;52293.19;5085839;28;20256;-77
2021/06/21 00:06:50;;;;;;;3.57;1.73;;;;;;;-144.99;79.83;52287.06;5087375;28;20300;-77
2021/06/21 00:09:18;;;;;;;3.63;1.80;;;;;;;-144.99;79.79;52268.72;5086791;28;20273;-77
2021/06/21 00:11:45;;;;;;;4.03;2.40;;;;;;;-144.99;79.88;52293.19;5085694;28;20222;-76
2021/06/21 00:14:11;;;;;;;4.43;1.57;;;;;;;-144.99;80.00;52293.19;5083295;28;20238;-76
2021/06/21 00:16:38;;;;;;;3.37;1.93;;;;;;;-144.99;80.04;52260.56;5084116;28;20288;-77
2021/06/21 00:19:05;;;;;;;3.67;1.80;;;;;;;-144.99;80.08;52240.19;5085628;28;20227;-75
2021/06/21 00:21:32;;;;;;;3.73;1.93;;;;;;;-144.99;80.09;52252.44;5084817;28;20609;-77
2021/06/21 00:23:58;;;;;;;3.20;1.90;;;;;;;-144.99;80.29;52291.16;5082598;28;20317;-75
2021/06/21 00:26:27;;;;;;;4.27;1.87;;;;;;;-144.99;80.20;52280.97;5084296;28;20291;-77
2021/06/21 00:28:55;;;;;;;4.87;2.40;;;;;;;-144.99;80.24;52280.97;5093057;28;20208;-78
2021/06/21 00:31:21;;;;;;;6.53;1.90;;;;;;;-144.99;80.25;52256.50;5079379;28;20302;-79
2021/06/21 00:33:48;;;;;;;6.37;2.53;;;;;;;-144.99;80.27;52297.25;5086294;28;20287;-81
2021/06/21 00:36:15;;;;;;;3.43;1.80;;;;;;;-144.99;80.07;52305.41;5083954;28;20204;-79
2021/06/21 00:38:42;;;;;;;7.37;2.57;;;;;;;-144.99;80.10;52227.97;5088553;28;20383;-79
2021/06/21 00:41:08;;;;;;;6.37;1.90;;;;;;;-144.99;80.28;52268.72;5082712;28;20354;-79
2021/06/21 00:43:39;;;;;;;5.60;2.33;;;;;;;-144.99;80.55;52240.19;5086622;28;20630;-78
2021/06/21 00:46:05;;;;;;;1.90;1.73;;;;;;;-144.99;80.53;52252.44;5087771;28;20303;-77
2021/06/21 00:48:32;;;;;;;2.73;1.37;;;;;;;-144.99;80.50;52272.81;5087573;28;20208;-77
2021/06/21 00:50:59;;;;;;;3.30;1.90;;;;;;;-144.99;80.82;52256.50;5084934;28;20305;-78
2021/06/21 00:53:25;;;;;;;3.27;1.90;;;;;;;-144.99;80.64;52280.97;5084824;28;20291;-78
2021/06/21 00:55:53;;;;;;;2.30;1.63;;;;;;;-144.99;80.74;52264.66;5084746;28;20655;-79
2021/06/21 00:58:19;;;;;;;6.03;2.23;;;;;;;-144.99;80.72;52270.78;5087742;28;20204;-76
2021/06/21 01:00:50;;;;;;;9.27;2.73;;;;;;;-144.99;80.82;52246.31;5088296;28;20316;-77
2021/06/21 01:03:17;;;;;;;3.00;1.90;;;;;;;-144.99;80.71;52289.13;5082551;28;20205;-79
2021/06/21 01:05:44;;;;;;;4.67;1.87;;;;;;;-144.99;80.63;52289.13;5083663;28;20845;-78
2021/06/21 01:08:12;;;;;;;5.07;2.00;;;;;;;-144.99;80.51;52260.56;5084582;28;20232;-78
2021/06/21 01:10:43;;;;;;;7.07;2.60;;;;;;;-144.99;80.87;52276.88;5084140;28;20263;-78
2021/06/21 01:13:25;;;;;;;7.73;2.27;;;;;;;-144.99;80.93;52260.56;5082857;28;20219;-79
2021/06/21 01:16:06;;;;;;;8.00;2.57;;;;;;;-144.99;80.81;52270.78;5102053;28;20247;-79
2021/06/21 01:18:35;;;;;;;5.57;2.33;;;;;;;-144.99;80.93;52313.56;5086651;28;20242;-79
2021/06/21 01:21:25;;;;;;;3.83;2.37;;;;;;;-144.99;80.84;52256.50;5085915;28;20259;-79
2021/06/21 01:24:31;;;;;;;6.67;2.27;;;;;;;-144.99;81.04;52272.81;5088752;28;20211;-80
2021/06/21 01:27:09;;;;;;;3.63;2.87;;;;;;;-144.99;81.01;52272.81;5088257;28;20769;-79
2021/06/21 01:29:47;;;;;;;16.17;4.73;;;;;;;-144.99;80.68;52278.91;5087357;28;20292;-78
2021/06/21 01:32:25;;;;;;;5.47;2.60;;;;;;;-144.99;80.83;52246.31;5094271;28;20298;-78
2021/06/21 01:34:55;;;;;;;5.00;3.30;;;;;;;-144.99;80.78;52280.97;5089912;28;20689;-79
2021/06/21 01:37:24;;;;;;;8.30;3.87;;;;;;;-144.99;80.42;52276.88;5089701;28;20272;-78
2021/06/21 01:39:55;;;;;;;4.60;3.07;;;;;;;-144.99;80.55;52256.50;5090097;28;20839;-77
2021/06/21 01:42:25;;;;;;;4.93;2.40;;;;;;;-144.99;80.66;52240.19;5088202;28;20206;-78
2021/06/21 01:44:56;;;;;;;6.77;3.80;;;;;;;-144.99;80.80;52293.19;5087239;28;20224;-76
2021/06/21 01:47:26;;;;;;;12.10;3.63;;;;;;;-144.99;80.67;52276.88;5083191;28;20215;-77
2021/06/21 01:49:53;;;;;;;8.23;2.67;;;;;;;-144.99;80.88;52285.03;5082910;28;20229;-75
2021/06/21 01:52:22;;;;;;;6.27;2.67;;;;;;;-144.99;81.23;52280.97;5086672;28;20686;-76
2021/06/21 01:54:53;;;;;;;4.60;3.07;;;;;;;-144.99;80.99;52276.88;5083761;28;20348;-76
2021/06/21 01:57:24;;;;;;;3.63;2.13;;;;;;;-144.99;81.15;52248.34;5086154;28;20223;-76
2021/06/21 01:59:54;;;;;;;4.13;2.93;;;;;;;-144.99;80.87;52252.44;5086375;28;20302;-76
2021/06/21 02:02:24;;;;;;;4.13;2.10;;;;;;;-144.99;81.41;52305.41;5084474;28;20208;-77
2021/06/21 02:04:54;;;;;;;5.93;2.77;;;;;;;-144.99;81.48;52252.44;5080461;28;20234;-76
2021/06/21 02:07:23;;;;;;;3.67;3.10;;;;;;;-144.99;81.27;52280.97;5083223;28;20635;-74
2021/06/21 02:09:53;;;;;;;2.83;2.37;;;;;;;-144.99;81.63;52272.81;5098185;28;20226;-82
2021/06/21 02:12:22;;;;;;;6.10;2.83;;;;;;;-144.99;81.63;52252.44;5109358;28;20376;-83
2021/06/21 02:14:50;;;;;;;7.63;3.70;;;;;;;-144.99;81.86;52215.75;5084815;22;20245;-79
2021/06/21 02:17:18;;;;;;;3.60;2.87;;;;;;;-144.99;82.13;52240.19;4988684;28;20211;-79
2021/06/21 02:19:46;;;;;;;7.63;2.97;;;;;;;-144.99;82.05;52293.19;4985904;28;20214;-80
2021/06/21 02:22:13;;;;;;;7.90;3.30;;;;;;;-144.99;82.24;52285.03;4981516;28;20210;-75
2021/06/21 02:24:41;;;;;;;4.67;2.97;;;;;;;-144.99;82.10;52250.38;4991114;28;20323;-77
2021/06/21 02:27:10;;;;;;;8.93;3.20;;;;;;;-144.99;82.35;52280.97;5004966;28;20207;-78
2021/06/21 02:29:38;;;;;;;7.80;3.83;;;;;;;-144.99;82.27;52301.34;5006280;28;20579;-78
2021/06/21 02:32:06;;;;;;;10.97;5.20;;;;;;;-144.99;82.44;52280.97;5006983;28;20233;-79
2021/06/21 02:34:34;;;;;;;7.63;4.70;;;;;;;-144.99;82.16;52248.34;5006252;28;20242;-78
2021/06/21 02:37:02;;;;;;;8.33;4.23;;;;;;;-144.99;82.14;52248.34;5021864;28;20202;-78
2021/06/21 02:39:29;;;;;;;6.83;4.33;;;;;;;-144.99;82.28;52248.34;5011416;28;20237;-79
2021/06/21 02:41:56;;;;;;;8.43;3.30;;;;;;;-144.99;82.35;52268.72;5021041;28;20226;-78
2021/06/21 02:44:23;;;;;;;11.20;3.67;;;;;;;-144.99;82.39;52240.19;5018152;28;20223;-79
2021/06/21 02:46:49;;;;;;;7.10;4.40;;;;;;;-144.99;82.44;52301.34;5006064;28;20284;-79
2021/06/21 02:49:16;;;;;;;6.30;3.57;;;;;;;-144.99;82.80;52248.34;5014565;28;20205;-82
2021/06/21 02:51:49;;;;;;;5.17;3.93;;;;;;;-144.99;82.65;52285.03;5008132;28;20365;-78
2021/06/21 02:54:25;;;;;;;6.37;3.33;;;;;;;-144.99;82.79;52276.88;5019552;28;20231;-79
2021/06/21 02:57:06;;;;;;;9.90;6.93;;;;;;;-144.99;83.69;52258.53;5026453;28;20216;-79
2021/06/21 02:59:37;;;;;;;6.60;4.60;;;;;;;-144.99;83.82;52305.41;5003901;28;20214;-77
2021/06/21 03:02:10;;;;;;;8.80;4.10;;;;;;;-144.99;84.02;52264.66;5006916;28;20204;-79
2021/06/21 03:04:39;;;;;;;8.27;4.53;;;;;;;-144.99;84.45;52305.41;5008884;28;20242;-78
2021/06/21 03:07:08;;;;;;;6.73;3.83;;;;;;;-144.99;84.94;52276.88;5000505;28;20212;-76
2021/06/21 03:09:40;;;;;;;7.67;4.20;;;;;;;-144.99;85.08;52256.50;5003411;28;20251;-79
2021/06/21 03:12:08;;;;;;;6.17;3.67;;;;;;;-144.99;85.30;52260.56;5009961;28;21077;-78
2021/06/21 03:14:35;;;;;;;10.33;4.40;;;;;;;-144.99;85.66;52248.34;5008933;28;20245;-76
2021/06/21 03:17:06;;;;;;;4.70;3.07;;;;;;;-144.99;85.63;52264.66;5006656;28;20203;-75
2021/06/21 03:19:33;;;;;;;6.07;4.57;;;;;;;-144.99;85.81;52268.72;5004754;28;20229;-74
2021/06/21 03:22:00;;;;;;;5.23;3.60;;;;;;;-144.99;85.86;52252.44;5000965;28;20207;-76
2021/06/21 03:24:27;;;;;;;4.80;3.97;;;;;;;-144.99;86.31;52285.03;5000732;28;20224;-76
2021/06/21 03:26:55;;;;;;;4.43;3.47;;;;;;;-144.99;86.30;52244.28;5002497;28;20221;-75
2021/06/21 03:29:23;;;;;;;5.80;3.13;;;;;;;-144.99;86.75;52283.00;5004997;28;20444;-75
2021/06/21 03:31:52;;;;;;;4.60;3.33;;;;;;;-144.99;86.84;52283.00;5004845;28;20215;-75
2021/06/21 03:34:22;;;;;;;8.03;4.20;;;;;;;-144.99;86.90;52285.03;5007332;28;20236;-74
2021/06/21 03:36:50;;;;;;;14.80;4.43;;;;;;;-144.99;87.37;52276.88;5001575;28;20215;-76
2021/06/21 03:39:17;;;;;;;8.30;4.13;;;;;;;-144.99;87.16;52280.97;5005643;28;20390;-75
2021/06/21 03:41:44;;;;;;;9.30;3.07;;;;;;;-144.99;87.25;52289.13;5005253;28;20778;-75
2021/06/21 03:44:12;;;;;;;6.53;3.07;;;;;;;-144.99;87.66;52297.25;5004321;28;20266;-75
2021/06/21 03:46:39;;;;;;;7.10;3.87;;;;;;;-144.99;87.83;52280.97;5007907;28;20397;-77
2021/06/21 03:49:05;;;;;;;6.53;3.80;;;;;;;-144.99;88.19;52293.19;4999146;28;20685;-74
2021/06/21 03:51:32;;;;;;;13.37;4.30;;;;;;;-144.99;88.56;52270.78;5004590;28;20676;-78
2021/06/21 03:53:59;;;;;;;5.33;3.63;;;;;;;-144.99;88.59;52309.50;5004617;28;20213;-77
2021/06/21 03:56:25;;;;;;;5.47;3.40;;;;;;;-144.99;88.85;52293.19;5004990;28;20301;-77
2021/06/21 03:58:52;;;;;;;3.07;2.57;;;;;;;-144.99;89.11;52260.56;4999837;28;20281;-78
2021/06/21 04:01:20;;;;;;;7.33;3.60;;;;;;;-144.99;89.34;52285.03;4998815;28;20269;-74
2021/06/21 04:03:47;;;;;;;5.13;3.50;;;;;;;-144.99;89.76;52244.28;4997910;28;20212;-75
2021/06/21 04:06:13;;;;;;;6.43;4.17;;;;;;;-144.99;89.78;52256.50;5000616;28;20239;-74
2021/06/21 04:08:40;;;;;;;5.40;3.37;;;;;;;-144.99;89.87;52280.97;5007210;28;20236;-72
2021/06/21 04:11:07;;;;;;;9.43;5.43;;;;;;;-144.99;90.12;52252.44;5005495;28;20216;-74
2021/06/21 04:13:34;;;;;;;7.70;3.63;;;;;;;-144.99;90.53;52244.28;5005762;28;20219;-74
2021/06/21 04:16:01;;;;;;;10.63;4.97;;;;;;;-144.99;90.46;52258.53;5009641;28;20311;-74
2021/06/21 04:18:28;;;;;;;7.20;3.23;;;;;;;-144.99;90.88;52321.72;5002837;28;20298;-75
2021/06/21 04:20:55;;;;;;;4.40;3.20;;;;;;;-144.99;91.04;52256.50;5004917;28;20296;-74
2021/06/21 04:23:22;;;;;;;6.53;4.20;;;;;;;-144.99;91.33;52313.56;5003624;28;20211;-73
2021/06/21 04:25:49;;;;;;;5.23;3.03;;;;;;;-144.99;91.81;52293.19;5007106;28;20232;-73
2021/06/21 04:28:15;;;;;;;5.63;3.47;;;;;;;-144.99;91.91;52264.66;5011066;28;20211;-73
2021/06/21 04:30:44;;;;;;;8.43;6.03;;;;;;;-144.99;92.16;52309.50;5002760;28;20203;-76
2021/06/21 04:33:10;;;;;;;6.00;3.27;;;;;;;-144.99;92.38;52291.16;5004227;28;20209;-75
2021/06/21 04:35:38;;;;;;;9.40;4.00;;;;;;;-144.99;92.49;52291.16;5005972;28;20611;-76
2021/06/21 04:38:05;;;;;;;7.13;3.70;;;;;;;-144.99;92.55;52285.03;5005880;28;20204;-76
2021/06/21 04:40:34;;;;;;;8.40;3.47;;;;;;;-144.99;92.80;52297.25;5000855;28;20216;-73
2021/06/21 04:43:01;;;;;;;8.60;6.00;;;;;;;-144.99;92.82;52289.13;5008056;28;20212;-75
2021/06/21 04:45:28;;;;;;;8.00;3.20;;;;;;;-144.99;92.99;52256.50;5004835;28;20235;-77
2021/06/21 04:47:55;;;;;;;6.60;3.77;;;;;;;-144.99;93.53;52254.47;5004954;28;20212;-77
2021/06/21 04:50:22;;;;;;;5.63;3.20;;;;;;;-144.99;93.56;52293.19;5001425;28;20589;-76
2021/06/21 04:52:51;;;;;;;6.53;3.97;;;;;;;-144.99;93.32;52266.69;5004803;28;20624;-77
2021/06/21 04:55:20;;;;;;;5.07;2.67;;;;;;;-144.99;93.37;52285.03;5004291;28;20224;-76
2021/06/21 04:57:47;;;;;;;8.57;2.87;;;;;;;-144.99;93.54;52258.53;5024647;28;20212;-76
2021/06/21 05:00:16;;;;;;;8.33;3.90;;;;;;;-144.99;93.51;52268.72;5008657;28;20297;-73
2021/06/21 05:02:43;;;;;;;8.60;2.80;;;;;;;-144.99;93.56;52268.72;5016759;28;20614;-76
2021/06/21 05:05:11;;;;;;;4.90;3.13;;;;;;;-144.99;93.75;52285.03;5007864;28;20234;-76
2021/06/21 05:07:40;;;;;;;5.93;2.77;;;;;;;-144.99;94.06;52252.44;5004668;28;20213;-75
2021/06/21 05:10:12;;;;;;;7.47;3.20;;;;;;;-144.99;94.13;52313.56;5002575;28;20214;-75
2021/06/21 05:12:39;;;;;;;10.20;5.13;;;;;;;-144.99;94.14;52276.88;5015010;28;20200;-75
2021/06/21 05:15:07;;;;;;;4.80;3.30;;;;;;;-144.99;94.40;52305.41;5002140;28;20256;-76
2021/06/21 05:17:34;;;;;;;4.10;2.93;;;;;;;-144.99;94.12;52268.72;5003743;28;20200;-76
2021/06/21 05:20:01;;;;;;;6.13;3.33;;;;;;;-144.99;94.11;52268.72;5009880;28;20222;-75
2021/06/21 05:22:28;;;;;;;4.00;2.23;;;;;;;-144.99;94.20;52244.28;5017697;28;20220;-75
2021/06/21 05:24:55;;;;;;;22.83;4.37;;;;;;;-144.99;94.08;52280.97;5008545;28;20228;-77
2021/06/21 05:27:23;;;;;;;3.93;2.13;;;;;;;-144.99;94.04;52285.03;5001757;28;20239;-76
2021/06/21 05:29:49;;;;;;;8.43;2.53;;;;;;;-144.99;94.42;52256.50;5002501;28;20202;-75
2021/06/21 05:32:16;;;;;;;5.90;2.50;;;;;;;-144.99;94.55;52260.56;5007545;28;20251;-77
2021/06/21 05:34:43;;;;;;;5.07;2.63;;;;;;;-144.99;94.45;52256.50;5002030;28;20259;-74
2021/06/21 05:37:10;;;;;;;4.27;2.77;;;;;;;-144.99;94.60;52264.66;5002224;28;20295;-75
2021/06/21 05:39:36;;;;;;;5.27;2.37;;;;;;;-144.99;94.55;52289.13;5001507;28;20222;-74
2021/06/21 05:42:04;;;;;;;5.77;2.97;;;;;;;-144.99;94.58;52252.44;5002122;28;20564;-74
2021/06/21 05:44:32;;;;;;;4.10;2.80;;;;;;;-144.99;94.74;52244.28;5002504;28;20227;-73
2021/06/21 05:46:58;;;;;;;2.93;2.07;;;;;;;-144.99;94.92;52305.41;5003166;28;20679;-73
2021/06/21 05:49:28;;;;;;;4.27;2.63;;;;;;;-144.99;95.00;52264.66;5001889;28;20654;-73
2021/06/21 05:51:55;;;;;;;2.77;2.23;;;;;;;-144.99;95.17;52289.13;5020966;28;20209;-74
2021/06/21 05:54:22;;;;;;;4.60;2.00;;;;;;;-144.99;95.23;52293.19;5004902;28;20247;-75
2021/06/21 05:56:48;;;;;;;6.30;2.37;;;;;;;-144.99;95.07;52301.34;5005301;28;20221;-73
2021/06/21 05:59:15;;;;;;;3.30;2.33;;;;;;;-144.99;95.22;52293.19;5002820;28;20303;-72
2021/06/21 06:01:43;;;;;;;4.13;2.00;;;;;;;-144.99;95.48;52289.13;5016778;28;20216;-73
2021/06/21 06:04:10;;;;;;;2.27;1.73;;;;;;;-144.99;95.54;52232.03;5005665;28;20254;-73
2021/06/21 06:06:36;;;;;;;5.17;2.07;;;;;;;-144.99;95.50;52285.03;5001787;28;20319;-75
2021/06/21 06:09:03;;;;;;;5.10;1.93;;;;;;;-144.99;95.84;52276.88;5006823;28;20200;-74
2021/06/21 06:11:30;;;;;;;4.30;2.40;;;;;;;-144.99;95.91;52276.88;5013372;28;20212;-75
2021/06/21 06:13:56;;;;;;;5.90;2.30;;;;;;;-144.99;96.17;52280.97;5003453;28;20212;-76
2021/06/21 06:16:23;;;;;;;4.10;2.37;;;;;;;-144.99;96.26;52305.41;5005801;28;20419;-75
2021/06/21 06:18:51;;;;;;;5.73;2.47;;;;;;;-144.99;96.21;52305.41;5005698;28;20214;-75
2021/06/21 06:21:17;;;;;;;4.10;1.53;;;;;;;-144.99;96.23;52278.91;5008986;28;20223;-75
2021/06/21 06:23:44;;;;;;;5.30;2.23;;;;;;;-144.99;96.65;52278.91;5000552;28;20210;-76
2021/06/21 06:26:12;;;;;;;5.93;2.60;;;;;;;-144.99;96.58;52285.03;5005707;28;20644;-75
2021/06/21 06:28:39;;;;;;;4.97;1.83;;;;;;;-144.99;96.54;52268.72;5019075;28;20498;-74
2021/06/21 06:31:06;;;;;;;3.37;1.70;;;;;;;-144.99;96.64;52252.44;5005009;28;20304;-72
2021/06/21 06:33:33;;;;;;;5.90;2.07;;;;;;;-144.99;97.11;52283.00;5006301;28;20834;-74
2021/06/21 06:36:01;;;;;;;3.77;2.33;;;;;;;-144.99;96.87;52268.72;5005240;28;20226;-71
2021/06/21 06:38:28;;;;;;;5.17;4.27;;;;;;;-144.99;97.15;52276.88;5008335;28;20229;-73
2021/06/21 06:40:55;;;;;;;3.17;2.13;;;;;;;-144.99;97.17;52264.66;5004051;28;21794;-70
2021/06/21 06:43:22;;;;;;;4.13;2.00;;;;;;;-144.99;97.05;52295.22;5005664;28;20213;-73
2021/06/21 06:45:48;;;;;;;2.50;1.80;;;;;;;-144.99;97.06;52291.16;5006164;28;20240;-73
2021/06/21 06:48:15;;;;;;;1.87;1.63;;;;;;;-144.99;96.94;52280.97;5009892;28;20654;-74
2021/06/21 06:50:42;;;;;;;3.03;1.43;;;;;;;-144.99;97.25;52280.97;5017775;28;20224;-74
2021/06/21 06:53:10;;;;;;;6.27;1.33;;;;;;;-144.99;97.03;52285.03;5001662;28;20213;-73
2021/06/21 06:58:21;;;;;;;1.30;1.20;;;;;;;-144.99;97.00;52260.56;5004917;28;20218;-72
2021/06/21 07:00:48;;;;;;;1.50;1.13;;;;;;;-144.99;97.22;52280.97;5008452;28;20213;-73
2021/06/21 07:03:14;;;;;;;1.47;0.97;;;;;;;-144.99;97.06;52256.50;5002834;28;20234;-72
2021/06/21 07:05:43;;;;;;;1.50;0.90;;;;;;;-144.99;97.17;52240.19;5004620;28;20330;-74
2021/06/21 07:08:11;;;;;;;5.30;1.23;;;;;;;-144.99;97.04;52287.06;5017396;28;20210;-73
2021/06/21 07:10:38;;;;;;;3.00;1.97;;;;;;;-144.99;97.63;52234.09;5005027;28;20848;-73
2021/06/21 07:13:05;;;;;;;2.20;1.20;;;;;;;-144.99;97.45;52248.34;5005360;28;20229;-73
2021/06/21 07:15:31;;;;;;;1.60;1.27;;;;;;;-144.99;96.87;52280.97;5004758;28;20353;-72
2021/06/21 07:17:58;;;;;;;3.23;1.47;;;;;;;-144.99;96.82;52278.91;5014162;28;20456;-74
2021/06/21 07:20:24;;;;;;;2.37;1.30;;;;;;;-144.99;96.77;52248.34;4998521;28;20289;-76
2021/06/21 07:22:51;;;;;;;2.17;1.03;;;;;;;-144.99;96.89;52232.03;5005134;28;20214;-74
2021/06/21 07:25:19;;;;;;;4.27;1.03;;;;;;;-144.99;96.53;52268.72;5002423;28;20316;-74
2021/06/21 07:27:46;;;;;;;2.87;1.17;;;;;;;-144.99;96.47;52256.50;5010197;28;20253;-74
2021/06/21 07:30:14;;;;;;;1.67;0.90;;;;;;;-144.99;96.60;52223.88;5002428;28;20214;-74
2021/06/21 07:32:41;;;;;;;0.93;0.90;;;;;;;-144.99;96.29;52280.97;5005392;28;20673;-74
2021/06/21 07:35:08;;;;;;;2.97;1.30;;;;;;;-144.99;96.28;52285.03;5003867;28;20287;-77
2021/06/21 07:37:35;;;;;;;3.30;1.40;;;;;;;-144.99;96.50;52309.50;5003479;28;20219;-75
2021/06/21 07:40:02;;;;;;;4.67;0.80;;;;;;;-144.99;96.47;52254.47;5025582;28;20234;-76
2021/06/21 07:42:30;;;;;;;0.60;0.53;;;;;;;-144.99;96.43;52280.97;5002959;28;20213;-76
2021/06/21 07:45:01;;;;;;;0.97;0.63;;;;;;;-144.99;96.47;52264.66;5001209;28;20314;-76
2021/06/21 07:47:27;;;;;;;1.00;0.70;;;;;;;-144.99;96.82;52240.19;5004845;28;20238;-74
2021/06/21 07:49:54;;;;;;;3.07;1.13;;;;;;;-144.99;96.68;52199.44;5006413;28;20301;-74
2021/06/21 07:52:20;;;;;;;1.43;0.70;;;;;;;-144.99;96.73;52276.88;5018028;28;20540;-75
2021/06/21 07:54:48;;;;;;;1.17;0.67;;;;;;;-144.99;96.68;52268.72;5003976;28;20245;-72
2021/06/21 07:57:15;;;;;;;0.73;0.60;;;;;;;-144.99;96.64;52252.44;5004224;28;20599;-75
2021/06/21 07:59:43;;;;;;;0.47;0.40;;;;;;;-144.99;96.56;52268.72;5005960;28;20214;-75
2021/06/21 08:02:10;;;;;;;1.77;0.80;;;;;;;-144.99;96.46;52240.19;5005257;28;20207;-74
2021/06/21 08:04:36;;;;;;;2.53;1.70;;;;;;;-144.99;96.37;52232.03;5002921;28;20256;-75
2021/06/21 08:07:04;;;;;;;1.70;0.63;;;;;;;-144.99;96.36;52278.91;5004795;28;20720;-77
2021/06/21 08:09:31;;;;;;;0.70;0.50;;;;;;;-144.99;96.25;52276.88;5011279;28;20216;-76
2021/06/21 08:11:58;;;;;;;0.97;0.60;;;;;;;-144.99;96.19;52227.97;5000517;28;20203;-76
2021/06/21 08:14:25;;;;;;;0.90;0.63;;;;;;;-144.99;96.30;52260.56;5003513;28;20298;-75
2021/06/21 08:16:53;;;;;;;0.77;0.77;;;;;;;-144.99;96.33;52264.66;5004493;28;20241;-76
2021/06/21 08:19:19;;;;;;;1.93;1.17;;;;;;;-144.99;96.38;52285.03;5012393;28;20253;-75
2021/06/21 08:21:46;;;;;;;1.13;0.70;;;;;;;-144.99;96.33;52260.56;5002079;28;20210;-76
2021/06/21 08:24:13;;;;;;;5.13;1.00;;;;;;;-144.99;96.25;52272.81;5001914;28;20269;-74
2021/06/21 08:26:40;;;;;;;4.53;1.00;;;;;;;-144.99;96.08;52293.19;5005271;28;20230;-76
2021/06/21 08:29:06;;;;;;;1.10;0.97;;;;;;;-144.99;95.90;52260.56;5003460;28;20285;-75
2021/06/21 08:31:34;;;;;;;0.97;0.80;;;;;;;-144.99;95.63;52268.72;5002374;28;20655;-75
2021/06/21 08:34:02;;;;;;;2.50;1.40;;;;;;;-144.99;95.86;52252.44;5002739;28;20207;-76
2021/06/21 08:36:29;;;;;;;2.10;1.17;;;;;;;-144.99;96.10;52309.50;5004500;28;20234;-74
2021/06/21 08:38:55;;;;;;;1.43;0.93;;;;;;;-144.99;95.84;52248.34;5002961;28;20600;-73
2021/06/21 08:41:22;;;;;;;3.17;1.37;;;;;;;-144.99;95.78;52276.88;5009088;28;20219;-76
2021/06/21 08:43:49;;;;;;;2.33;0.80;;;;;;;-144.99;95.44;52252.44;5003037;28;20271;-76
2021/06/21 08:46:18;;;;;;;1.20;0.73;;;;;;;-144.99;95.44;52223.88;5002269;28;20270;-76
2021/06/21 08:48:46;;;;;;;0.43;0.37;;;;;;;-144.99;95.50;52242.22;5005995;28;20264;-76
2021/06/21 08:51:16;;;;;;;1.47;0.40;;;;;;;-144.99;95.62;52232.03;5042999;28;20589;-74
2021/06/21 08:53:43;;;;;;;1.53;0.53;;;;;;;-144.99;95.36;52264.66;4999125;28;20215;-76
2021/06/21 08:56:10;;;;;;;3.43;0.80;;;;;;;-144.99;95.54;52260.56;5002764;28;20226;-76
2021/06/21 08:58:37;;;;;;;1.63;0.50;;;;;;;-144.99;95.16;52256.50;5004265;28;20207;-76
2021/06/21 09:01:04;;;;;;;1.00;0.60;;;;;;;-144.99;95.23;52246.31;5003659;28;20233;-74
2021/06/21 09:03:33;;;;;;;1.20;0.50;;;;;;;-144.99;95.10;52289.13;5024355;28;20214;-76
2021/06/21 09:06:00;;;;;;;0.50;0.50;;;;;;;-144.99;95.14;52248.34;4999402;28;20241;-76
2021/06/21 09:08:29;;;;;;;0.77;0.30;;;;;;;-144.99;95.01;52236.13;5006870;28;20809;-76
2021/06/21 09:10:56;;;;;;;3.97;2.27;;;;;;;-144.99;95.00;52272.81;5006220;28;20214;-76
2021/06/21 09:13:23;;;;;;;2.37;1.70;;;;;;;-144.99;95.02;52221.84;5032497;28;20230;-76
2021/06/21 09:15:51;;;;;;;3.47;1.80;;;;;;;-144.99;94.83;52215.75;4997797;28;20929;-76
2021/06/21 09:18:36;;;;;;;0.80;0.50;;;;;;;-144.99;94.77;52232.03;4997769;28;20420;-76
2021/06/21 09:21:24;;;;;;;1.40;0.70;;;;;;;-144.99;94.36;52236.13;4999439;28;20214;-76
2021/06/21 09:23:54;;;;;;;1.90;1.17;;;;;;;-144.99;94.64;52236.13;5039713;28;20214;-75
2021/06/21 09:26:23;;;;;;;2.13;1.20;;;;;;;-144.99;94.55;52264.66;5030657;28;20222;-74
2021/06/21 09:28:51;;;;;;;1.93;0.57;;;;;;;-144.99;94.70;52272.81;5015623;28;20242;-74
2021/06/21 09:31:20;;;;;;;3.77;1.90;;;;;;;-144.99;94.49;52256.50;5006724;28;20602;-74
2021/06/21 09:33:47;;;;;;;2.30;1.47;;;;;;;-144.99;94.47;52254.47;5009439;28;20456;-75
2021/06/21 09:36:26;;;;;;;1.30;0.93;;;;;;;-144.99;94.25;52236.13;5005867;28;20246;-74
2021/06/21 09:39:19;;;;;;;1.03;0.60;;;;;;;-144.99;94.03;52191.28;5006972;28;20211;-76
2021/06/21 09:42:02;;;;;;;1.37;0.37;;;;;;;-144.99;93.67;52232.03;5008363;28;20233;-77
2021/06/21 09:44:33;;;;;;;2.43;1.10;;;;;;;-144.99;93.36;52276.88;5021944;28;20686;-75
2021/06/21 09:47:16;;;;;;;0.63;0.40;;;;;;;-144.99;92.98;52248.34;5041176;28;20227;-77
2021/06/21 09:50:18;;;;;;;2.03;1.37;;;;;;;-144.99;92.52;52211.66;5026953;28;20526;-77
2021/06/21 09:52:50;;;;;;;12.43;6.37;;;;;;;-144.99;92.79;52195.34;5022338;23;20258;-73
2021/06/21 09:55:29;;;;;;;5.50;3.30;;;;;;;-144.99;93.10;52272.81;5074910;28;20207;-72
2021/06/21 09:58:11;;;;;;;3.80;2.17;;;;;;;-144.99;92.70;52248.34;5086861;28;20291;-74
2021/06/21 10:00:41;;;;;;;2.00;0.93;;;;;;;-144.99;92.29;52252.44;5076609;28;20211;-74
2021/06/21 10:03:13;;;;;;;5.30;3.47;;;;;;;-144.99;92.32;52260.56;5084955;28;20224;-73
2021/06/21 10:05:43;;;;;;;0.97;0.80;;;;;;;-144.99;91.83;52213.69;5084984;28;20275;-74
2021/06/21 10:08:12;;;;;;;1.60;0.83;;;;;;;-144.99;92.02;52207.59;5086862;28;20725;-74
2021/06/21 10:10:41;;;;;;;1.10;0.53;;;;;;;-144.99;92.28;52248.34;5075205;28;20292;-74
2021/06/21 10:13:09;;;;;;;0.50;0.43;;;;;;;-144.99;92.13;52207.59;5084049;28;20630;-74
2021/06/21 10:15:36;;;;;;;0.43;0.40;;;;;;;-144.99;92.12;52187.19;5088862;28;20592;-74
2021/06/21 10:18:06;;;;;;;0.33;0.23;;;;;;;-144.99;91.94;52240.19;5083673;28;20204;-75
2021/06/21 10:20:33;;;;;;;0.87;0.40;;;;;;;-144.99;92.07;52236.13;5086263;28;20233;-75
2021/06/21 10:23:00;;;;;;;0.33;0.33;;;;;;;-144.99;92.24;52268.72;5080408;28;20232;-75
2021/06/21 10:25:27;;;;;;;0.43;0.20;;;;;;;-144.99;92.35;52215.75;5082592;28;20242;-76
2021/06/21 10:28:00;;;;;;;0.60;0.30;;;;;;;-144.99;92.19;52232.03;5081739;28;20656;-74
2021/06/21 10:30:27;;;;;;;0.30;0.30;;;;;;;-144.99;92.19;52276.88;5086666;28;20206;-75
2021/06/21 10:32:55;;;;;;;0.50;0.40;;;;;;;-144.99;92.23;52262.63;5093329;28;20220;-74
2021/06/21 10:35:29;;;;;;;0.73;0.60;;;;;;;-144.99;91.95;52227.97;5082648;28;20206;-73
2021/06/21 10:37:58;;;;;;;1.50;0.93;;;;;;;-144.99;91.88;52246.31;5084374;28;20211;-74
2021/06/21 10:40:26;;;;;;;1.00;0.60;;;;;;;-144.99;92.31;52268.72;5089089;28;20231;-73
2021/06/21 10:42:53;;;;;;;0.77;0.60;;;;;;;-144.99;92.23;52236.13;5070849;28;20310;-73
2021/06/21 10:45:23;;;;;;;1.80;0.83;;;;;;;-144.99;91.68;52236.13;5073139;28;20239;-74
2021/06/21 10:47:51;;;;;;;0.80;0.53;;;;;;;-144.99;91.32;52232.03;5082602;28;20647;-74
2021/06/21 10:50:25;;;;;;;3.03;0.90;;;;;;;-144.99;91.35;52227.97;5080605;28;20233;-76
2021/06/21 10:53:00;;;;;;;0.33;0.30;;;;;;;-144.99;91.72;52227.97;5090377;28;20240;-75
2021/06/21 10:55:41;;;;;;;0.63;0.43;;;;;;;-144.99;91.56;52238.16;5081959;28;20588;-75
2021/06/21 10:58:46;;;;;;;0.80;0.40;;;;;;;-144.99;91.37;52227.97;5076387;28;20618;-74
2021/06/21 11:01:24;;;;;;;0.57;0.50;;;;;;;-144.99;91.10;52240.19;5087168;28;20212;-74
2021/06/21 11:03:52;;;;;;;0.63;0.57;;;;;;;-144.99;91.16;52248.34;5080725;28;20273;-74
2021/06/21 11:06:39;;;;;;;0.80;0.70;;;;;;;-144.99;90.86;52215.75;5088772;28;20234;-75
2021/06/21 11:09:08;;;;;;;0.93;0.70;;;;;;;-144.99;91.02;52211.66;5081939;28;20571;-73
2021/06/21 11:11:45;;;;;;;2.20;0.50;;;;;;;-144.99;91.24;52256.50;5091952;28;20636;-75
2021/06/21 11:14:22;;;;;;;1.13;0.53;;;;;;;-144.99;91.55;52236.13;5090714;28;20322;-75
2021/06/21 11:16:52;;;;;;;0.60;0.60;;;;;;;-144.99;91.10;52236.13;5088212;28;20210;-75
2021/06/21 11:19:34;;;;;;;0.83;0.70;;;;;;;-144.99;91.30;52230.00;5085128;28;20284;-74
2021/06/21 11:22:04;;;;;;;1.03;0.73;;;;;;;-144.99;91.39;52268.72;5085497;28;20218;-75
2021/06/21 11:24:49;;;;;;;2.37;0.90;;;;;;;-144.99;91.79;52215.75;5076747;28;20224;-73
2021/06/21 11:27:18;;;;;;;2.43;0.87;;;;;;;-144.99;92.07;52219.81;5079345;28;20227;-73
2021/06/21 11:29:46;;;;;;;1.07;0.73;;;;;;;-144.99;91.91;52236.13;5085764;28;20200;-73